Time;durP1;ratioP1;P1;durP2;ratioP2;P2;SDS_P1;SDS_P2;PMS_P1;PMS_P2;Temp;Humidity;BMP_temperature;BMP_pressure;BME280_temperature;BME280_humidity;BME280_pressure;Samples;Min_cycle;Max_cycle;Signal;HPM_P1;HPM_P2
2022/07/29 00:00:38;;;;;;;1.88;1.10;;;21.30;48.90;;;;;;5098414;28;20122;-69
2022/07/29 00:03:04;;;;;;;1.65;1.00;;;21.30;48.90;;;;;;5116293;28;20020;-69
2022/07/29 00:05:29;;;;;;;4.45;1.45;;;21.30;48.80;;;;;;5116276;28;20076;-69
2022/07/29 00:07:55;;;;;;;3.40;1.20;;;21.30;48.60;;;;;;5081637;28;20050;-69
2022/07/29 00:10:21;;;;;;;3.70;1.05;;;21.30;48.60;;;;;;5098075;28;20079;-69
2022/07/29 00:12:47;;;;;;;2.92;1.17;;;21.40;48.70;;;;;;5097984;28;20063;-69
2022/07/29 00:15:13;;;;;;;3.50;1.48;;;21.30;48.60;;;;;;5116238;28;20028;-69
2022/07/29 00:17:38;;;;;;;2.38;1.00;;;21.30;48.60;;;;;;5116043;28;20024;-69
2022/07/29 00:20:04;;;;;;;1.75;0.90;;;21.30;48.60;;;;;;5116008;28;20387;-69
2022/07/29 00:22:30;;;;;;;3.72;1.10;;;21.30;48.70;;;;;;5097998;28;20032;-69
2022/07/29 00:24:56;;;;;;;2.05;1.00;;;21.30;49.80;;;;;;5115866;28;20043;-69
2022/07/29 00:27:21;;;;;;;4.03;1.10;;;21.30;49.00;;;;;;5097943;28;20047;-69
2022/07/29 00:29:47;;;;;;;2.47;1.48;;;21.30;49.00;;;;;;5115734;28;20035;-69
2022/07/29 00:32:13;;;;;;;1.63;1.17;;;21.20;49.30;;;;;;5115688;28;20051;-69
2022/07/29 00:37:25;;;;;;;2.35;1.25;;;21.20;49.00;;;;;;5074199;28;20062;-69
2022/07/29 00:39:51;;;;;;;1.50;1.20;;;21.20;49.20;;;;;;5115588;28;20058;-68
2022/07/29 00:42:16;;;;;;;1.88;1.20;;;21.10;49.10;;;;;;5115555;28;20028;-69
2022/07/29 00:44:43;;;;;;;5.13;1.40;;;21.10;49.70;;;;;;5115521;28;20028;-69
2022/07/29 00:47:11;;;;;;;3.92;1.40;;;21.00;49.40;;;;;;5115488;28;20035;-69
2022/07/29 00:49:39;;;;;;;2.90;1.42;;;21.10;49.30;;;;;;5115401;28;20042;-69
2022/07/29 00:52:05;;;;;;;4.97;1.40;;;21.00;49.80;;;;;;5115248;28;20017;-69
2022/07/29 00:54:33;;;;;;;5.82;1.30;;;21.00;50.90;;;;;;5115293;28;20016;-69
2022/07/29 00:56:59;;;;;;;3.03;1.08;;;21.00;51.60;;;;;;5097351;28;20054;-69
2022/07/29 00:59:26;;;;;;;3.85;1.70;;;21.00;52.10;;;;;;5115194;28;20028;-70
2022/07/29 01:01:52;;;;;;;8.65;2.13;;;21.00;53.00;;;;;;5115150;28;20031;-70
2022/07/29 01:04:18;;;;;;;4.80;1.70;;;20.90;55.40;;;;;;5097224;28;20032;-70
2022/07/29 01:06:44;;;;;;;4.32;1.73;;;20.90;56.00;;;;;;5097149;28;20032;-70
2022/07/29 01:09:10;;;;;;;2.20;1.60;;;20.80;57.60;;;;;;5115046;28;20091;-70
2022/07/29 01:11:36;;;;;;;4.63;1.50;;;20.70;57.30;;;;;;5096707;28;20059;-70
2022/07/29 01:14:03;;;;;;;2.83;1.80;;;20.50;57.90;;;;;;5097085;28;20024;-70
2022/07/29 01:16:32;;;;;;;3.35;1.80;;;20.40;58.70;;;;;;5114913;28;20084;-70
2022/07/29 01:19:17;;;;;;;2.38;1.75;;;20.30;60.10;;;;;;5114848;28;20020;-70
2022/07/29 01:21:53;;;;;;;2.42;1.90;;;20.10;61.10;;;;;;5114126;28;20540;-70
2022/07/29 01:24:56;;;;;;;4.57;1.90;;;20.10;62.40;;;;;;5096796;28;20028;-70
2022/07/29 01:27:49;;;;;;;4.50;2.22;;;20.10;62.40;;;;;;5114879;28;20103;-70
2022/07/29 01:30:15;;;;;;;4.43;1.90;;;20.10;62.60;;;;;;5114760;28;20024;-70
2022/07/29 01:32:42;;;;;;;3.00;1.92;;;19.80;63.30;;;;;;5114523;28;20059;-70
2022/07/29 01:35:14;;;;;;;5.95;2.30;;;19.60;64.20;;;;;;5114528;28;20024;-72
2022/07/29 01:37:50;;;;;;;4.63;2.55;;;19.40;65.50;;;;;;5114698;28;20023;-72
2022/07/29 01:40:18;;;;;;;6.72;2.60;;;19.30;65.60;;;;;;5114487;28;20099;-71
2022/07/29 01:42:48;;;;;;;3.63;2.50;;;19.00;65.80;;;;;;5114371;28;20038;-71
2022/07/29 01:45:28;;;;;;;6.22;2.50;;;18.90;66.60;;;;;;5096578;28;20024;-71
2022/07/29 01:47:58;;;;;;;3.75;2.15;;;19.00;67.10;;;;;;5114363;28;20023;-71
2022/07/29 01:50:37;;;;;;;6.13;2.72;;;19.10;67.00;;;;;;5096459;28;20020;-71
2022/07/29 01:53:07;;;;;;;7.00;2.70;;;19.00;67.40;;;;;;5114183;28;20028;-71
2022/07/29 01:55:39;;;;;;;5.20;2.55;;;19.10;67.40;;;;;;5114334;28;20079;-71
2022/07/29 01:58:05;;;;;;;3.45;2.20;;;19.10;67.90;;;;;;5114198;28;20040;-71
2022/07/29 02:00:33;;;;;;;2.95;2.22;;;19.10;68.20;;;;;;5114110;28;20024;-71
2022/07/29 02:03:02;;;;;;;4.20;2.50;;;19.10;68.90;;;;;;5096175;28;20039;-71
2022/07/29 02:05:28;;;;;;;3.42;2.50;;;19.10;68.80;;;;;;5114001;28;20034;-71
2022/07/29 02:07:57;;;;;;;4.97;2.70;;;19.20;68.90;;;;;;5113954;28;20059;-71
2022/07/29 02:10:26;;;;;;;5.63;2.83;;;19.30;68.90;;;;;;5113924;28;20065;-72
2022/07/29 02:12:54;;;;;;;4.63;2.50;;;19.30;69.10;;;;;;5113640;28;20050;-72
2022/07/29 02:15:22;;;;;;;5.35;2.58;;;19.40;68.60;;;;;;5113861;28;20027;-72
2022/07/29 02:18:24;;;;;;;7.03;2.72;;;19.40;68.40;;;;;;5113790;28;20030;-72
2022/07/29 02:20:54;;;;;;;4.10;2.80;;;19.40;68.20;;;;;;5012153;28;20521;-72
2022/07/29 02:23:22;;;;;;;3.47;2.67;;;19.30;68.20;;;;;;5096026;28;20040;-72
2022/07/29 02:25:54;;;;;;;4.93;2.40;;;19.30;68.50;;;;;;5095701;28;20382;-72
2022/07/29 02:28:24;;;;;;;5.68;2.70;;;19.20;68.30;;;;;;5113603;28;20028;-72
2022/07/29 02:30:51;;;;;;;5.60;2.90;;;19.10;68.70;;;;;;5113629;28;20020;-72
2022/07/29 02:33:19;;;;;;;4.65;2.40;;;19.10;68.60;;;;;;5095617;28;20040;-71
2022/07/29 02:35:46;;;;;;;3.22;2.08;;;19.10;68.50;;;;;;5113598;28;20020;-71
2022/07/29 02:41:01;;;;;;;4.13;2.30;;;19.10;68.40;;;;;;5113826;28;20156;-72
2022/07/29 02:43:28;;;;;;;6.55;2.40;;;19.20;68.30;;;;;;5113521;28;20050;-71
2022/07/29 02:45:56;;;;;;;5.22;2.38;;;19.10;68.20;;;;;;5113489;28;20046;-72
2022/07/29 02:48:34;;;;;;;2.95;2.10;;;19.10;68.20;;;;;;5079073;28;20031;-71
2022/07/29 02:51:17;;;;;;;2.95;2.05;;;19.10;68.20;;;;;;5113642;28;20016;-71
2022/07/29 02:53:49;;;;;;;2.53;2.00;;;19.00;67.60;;;;;;5095510;28;20031;-72
2022/07/29 02:56:18;;;;;;;9.65;2.60;;;18.80;68.60;;;;;;5113420;28;20020;-71
2022/07/29 02:58:58;;;;;;;4.45;2.25;;;18.70;68.30;;;;;;5095573;28;20542;-72
2022/07/29 03:01:28;;;;;;;2.63;1.88;;;18.70;68.50;;;;;;5113366;28;20099;-72
2022/07/29 03:03:54;;;;;;;2.85;2.10;;;18.60;68.30;;;;;;5113397;28;20072;-71
2022/07/29 03:06:25;;;;;;;3.67;2.25;;;18.70;68.50;;;;;;5095617;28;20031;-72
2022/07/29 03:08:52;;;;;;;3.95;2.15;;;18.70;68.50;;;;;;5113331;28;20024;-72
2022/07/29 03:11:18;;;;;;;3.97;2.17;;;18.80;68.20;;;;;;5113036;28;20021;-72
2022/07/29 03:13:44;;;;;;;5.47;2.30;;;18.90;68.20;;;;;;5095270;28;20032;-72
2022/07/29 03:16:10;;;;;;;3.67;2.53;;;18.90;67.80;;;;;;5113216;28;20030;-72
2022/07/29 03:18:37;;;;;;;3.20;2.00;;;18.90;67.90;;;;;;5113198;28;20016;-72
2022/07/29 03:21:03;;;;;;;5.30;2.30;;;18.90;68.10;;;;;;5095200;28;20240;-72
2022/07/29 03:23:29;;;;;;;2.92;2.17;;;18.90;68.20;;;;;;5113147;28;20028;-72
2022/07/29 03:25:55;;;;;;;6.35;2.05;;;18.90;68.30;;;;;;5095326;28;20032;-72
2022/07/29 03:28:22;;;;;;;3.55;2.10;;;18.80;68.50;;;;;;5113035;28;20497;-72
2022/07/29 03:30:48;;;;;;;4.13;2.08;;;18.80;68.50;;;;;;5113082;28;20016;-72
2022/07/29 03:33:13;;;;;;;4.35;2.40;;;18.80;68.60;;;;;;5095036;28;20162;-72
2022/07/29 03:35:39;;;;;;;4.97;2.40;;;18.80;68.80;;;;;;5113002;28;20028;-72
2022/07/29 03:38:05;;;;;;;3.40;2.22;;;18.80;68.90;;;;;;5112988;28;20020;-72
2022/07/29 03:40:46;;;;;;;4.25;2.53;;;18.80;68.70;;;;;;5095179;28;20487;-71
2022/07/29 03:43:13;;;;;;;3.42;2.38;;;18.80;68.50;;;;;;5095061;28;20031;-72
2022/07/29 03:45:44;;;;;;;3.88;2.28;;;18.70;68.50;;;;;;5115875;28;20437;-72
2022/07/29 03:48:13;;;;;;;4.07;2.40;;;18.60;68.90;;;;;;5116655;28;20020;-72
2022/07/29 03:50:39;;;;;;;4.72;2.50;;;18.60;69.20;;;;;;5116589;28;20019;-71
2022/07/29 03:53:05;;;;;;;3.03;2.42;;;18.60;69.40;;;;;;5116441;28;20032;-71
2022/07/29 03:55:37;;;;;;;4.60;2.58;;;18.60;69.20;;;;;;5116488;28;20028;-71
2022/07/29 03:58:04;;;;;;;4.57;2.45;;;18.50;69.50;;;;;;5116461;28;20021;-72
2022/07/29 04:00:31;;;;;;;3.65;2.72;;;18.60;69.70;;;;;;5098515;28;20028;-72
2022/07/29 04:02:57;;;;;;;5.22;2.80;;;18.60;69.70;;;;;;5116348;28;20047;-72
2022/07/29 04:05:23;;;;;;;3.65;3.00;;;18.60;69.40;;;;;;5098440;28;20036;-72
2022/07/29 04:07:48;;;;;;;5.20;2.60;;;18.50;69.80;;;;;;5098470;28;20048;-72
2022/07/29 04:10:18;;;;;;;4.50;2.50;;;18.50;70.50;;;;;;5116221;28;20039;-72
2022/07/29 04:12:44;;;;;;;4.35;2.53;;;18.60;70.50;;;;;;5115922;28;20067;-71
2022/07/29 04:15:11;;;;;;;3.53;2.47;;;18.60;69.90;;;;;;5081473;28;20031;-72
2022/07/29 04:17:36;;;;;;;4.95;2.80;;;18.70;70.00;;;;;;5116036;28;20360;-71
2022/07/29 04:20:03;;;;;;;6.00;2.60;;;18.60;70.70;;;;;;5115988;28;20050;-71
2022/07/29 04:22:28;;;;;;;4.75;2.75;;;18.50;70.10;;;;;;5116149;28;20030;-72
2022/07/29 04:24:54;;;;;;;4.85;2.80;;;18.40;70.20;;;;;;5081363;28;20032;-72
2022/07/29 04:27:19;;;;;;;3.88;3.15;;;18.30;70.50;;;;;;5098249;28;20028;-72
2022/07/29 04:29:45;;;;;;;5.68;3.00;;;18.20;71.10;;;;;;5097854;28;20051;-72
2022/07/29 04:32:11;;;;;;;6.18;3.20;;;18.10;71.40;;;;;;5115711;28;20046;-72
2022/07/29 04:34:36;;;;;;;5.85;2.90;;;18.20;71.60;;;;;;5115761;28;20421;-71
2022/07/29 04:37:02;;;;;;;4.43;3.10;;;18.30;71.10;;;;;;5115678;28;20032;-72
2022/07/29 04:39:28;;;;;;;4.65;3.17;;;18.40;70.80;;;;;;5097744;28;20024;-72
2022/07/29 04:41:53;;;;;;;5.35;3.00;;;18.40;70.70;;;;;;5097843;28;20043;-71
2022/07/29 04:44:19;;;;;;;5.72;3.20;;;18.50;70.90;;;;;;5115568;28;20016;-72
2022/07/29 04:46:46;;;;;;;5.50;3.20;;;18.50;70.70;;;;;;5097818;28;20028;-72
2022/07/29 04:49:11;;;;;;;4.60;3.08;;;18.60;70.80;;;;;;5097752;28;20029;-72
2022/07/29 04:51:37;;;;;;;6.13;3.30;;;18.50;70.80;;;;;;5115342;28;20024;-71
2022/07/29 04:54:03;;;;;;;7.68;3.40;;;18.50;70.90;;;;;;5080990;28;20025;-71
2022/07/29 04:56:28;;;;;;;7.45;3.33;;;18.30;71.40;;;;;;5079644;28;20043;-71
2022/07/29 04:58:54;;;;;;;5.68;3.22;;;18.30;72.50;;;;;;5080703;28;20082;-71
2022/07/29 05:01:20;;;;;;;8.35;3.80;;;18.40;71.40;;;;;;5115361;28;20024;-71
2022/07/29 05:03:46;;;;;;;5.38;3.58;;;18.40;71.30;;;;;;5097273;28;20042;-71
2022/07/29 05:06:11;;;;;;;4.78;3.58;;;18.40;71.10;;;;;;5115141;28;20020;-72
2022/07/29 05:08:37;;;;;;;6.32;4.50;;;18.40;70.70;;;;;;5115038;28;20036;-72
2022/07/29 05:11:03;;;;;;;7.38;3.65;;;18.40;70.90;;;;;;5097238;28;20036;-71
2022/07/29 05:13:29;;;;;;;6.05;3.97;;;18.50;70.70;;;;;;5096806;28;20048;-72
2022/07/29 05:15:55;;;;;;;5.50;3.85;;;18.50;70.70;;;;;;5096964;28;20099;-71
2022/07/29 05:18:20;;;;;;;7.55;3.75;;;18.50;70.40;;;;;;5096968;28;20025;-72
2022/07/29 05:20:46;;;;;;;6.20;3.72;;;18.50;70.10;;;;;;5096981;28;20030;-72
2022/07/29 05:23:12;;;;;;;8.80;3.53;;;18.50;70.30;;;;;;5114789;28;20047;-71
2022/07/29 05:25:38;;;;;;;5.93;3.90;;;18.50;70.20;;;;;;5114846;28;20024;-71
2022/07/29 05:28:04;;;;;;;5.32;3.78;;;18.50;70.20;;;;;;5096582;28;20087;-72
2022/07/29 05:30:30;;;;;;;8.85;4.05;;;18.50;70.40;;;;;;5096653;28;20039;-71
2022/07/29 05:32:55;;;;;;;5.25;3.42;;;18.50;70.50;;;;;;5114517;28;20032;-72
2022/07/29 05:35:21;;;;;;;4.25;3.28;;;18.50;70.50;;;;;;5096636;28;20016;-72
2022/07/29 05:37:47;;;;;;;8.05;4.18;;;18.50;70.50;;;;;;5114537;28;20039;-71
2022/07/29 05:40:12;;;;;;;6.70;3.60;;;18.50;70.30;;;;;;5096582;28;20020;-71
2022/07/29 05:42:38;;;;;;;5.65;3.70;;;18.30;70.20;;;;;;5096487;28;20111;-71
2022/07/29 05:45:04;;;;;;;6.72;3.72;;;18.30;70.70;;;;;;5096684;28;20050;-72
2022/07/29 05:47:30;;;;;;;6.82;3.95;;;18.40;70.60;;;;;;5114387;28;20084;-71
2022/07/29 05:49:56;;;;;;;5.93;3.28;;;18.40;70.60;;;;;;5114292;28;20032;-71
2022/07/29 05:52:22;;;;;;;6.43;3.80;;;18.40;70.50;;;;;;5114170;28;20038;-71
2022/07/29 05:54:48;;;;;;;6.20;3.55;;;18.40;70.50;;;;;;5114194;28;20016;-71
2022/07/29 05:57:23;;;;;;;5.80;3.55;;;18.50;70.40;;;;;;5114155;28;20028;-72
2022/07/29 05:59:49;;;;;;;5.53;3.58;;;18.50;70.30;;;;;;5114188;28;20027;-71
2022/07/29 06:02:15;;;;;;;6.07;3.85;;;18.50;70.00;;;;;;5114077;28;20031;-71
2022/07/29 06:04:41;;;;;;;6.38;4.07;;;18.50;69.90;;;;;;5114045;28;20028;-72
2022/07/29 06:07:07;;;;;;;4.97;3.45;;;18.50;69.90;;;;;;5113693;28;20039;-71
2022/07/29 06:09:33;;;;;;;6.28;4.05;;;18.50;69.90;;;;;;5079271;28;20099;-71
2022/07/29 06:11:59;;;;;;;8.13;4.00;;;18.50;69.80;;;;;;5079277;28;20048;-71
2022/07/29 06:14:26;;;;;;;9.85;4.40;;;18.50;69.60;;;;;;5113885;28;20089;-71
2022/07/29 06:16:52;;;;;;;5.40;3.85;;;18.50;69.40;;;;;;5113879;28;20076;-71
2022/07/29 06:19:18;;;;;;;7.55;3.72;;;18.50;69.30;;;;;;5113805;28;20051;-72
2022/07/29 06:21:45;;;;;;;8.23;4.25;;;18.50;69.40;;;;;;5113804;28;20090;-71
2022/07/29 06:24:12;;;;;;;9.02;3.78;;;18.50;69.60;;;;;;5095914;28;20030;-71
2022/07/29 06:26:38;;;;;;;6.57;3.90;;;18.50;69.70;;;;;;5113719;28;20025;-71
2022/07/29 06:29:03;;;;;;;5.22;3.58;;;18.50;69.80;;;;;;5113597;28;20103;-72
2022/07/29 06:31:29;;;;;;;5.40;3.67;;;18.50;70.50;;;;;;5113581;28;20474;-71
2022/07/29 06:33:55;;;;;;;7.65;3.63;;;18.50;69.90;;;;;;5113642;28;20024;-71
2022/07/29 06:36:20;;;;;;;6.88;3.70;;;18.50;69.70;;;;;;5113583;28;20035;-71
2022/07/29 06:38:46;;;;;;;8.40;3.92;;;18.50;69.80;;;;;;5095719;28;20032;-71
2022/07/29 06:41:15;;;;;;;8.13;4.22;;;18.50;69.80;;;;;;5113568;28;20032;-70
2022/07/29 06:43:42;;;;;;;5.13;3.97;;;18.50;70.10;;;;;;5113517;28;20016;-70
2022/07/29 06:46:11;;;;;;;5.35;3.97;;;18.50;70.20;;;;;;5113508;28;20028;-70
2022/07/29 06:48:37;;;;;;;6.78;3.97;;;18.50;70.10;;;;;;5113473;28;20020;-70
2022/07/29 06:51:04;;;;;;;7.25;4.13;;;18.60;69.90;;;;;;5113462;28;20035;-69
2022/07/29 06:53:30;;;;;;;5.75;4.00;;;18.60;69.90;;;;;;5113377;28;20055;-69
2022/07/29 06:55:58;;;;;;;7.15;4.13;;;18.60;70.00;;;;;;5113403;28;20017;-70
2022/07/29 06:58:23;;;;;;;8.30;4.22;;;18.60;70.80;;;;;;5113363;28;20028;-70
2022/07/29 07:00:50;;;;;;;7.25;4.43;;;18.60;69.80;;;;;;5095664;28;20048;-70
2022/07/29 07:03:17;;;;;;;6.78;3.75;;;18.60;69.90;;;;;;5113357;28;20112;-69
2022/07/29 07:05:43;;;;;;;7.43;4.40;;;18.60;69.90;;;;;;5113346;28;20093;-70
2022/07/29 07:08:08;;;;;;;7.18;4.57;;;18.60;69.90;;;;;;5113299;28;20028;-70
2022/07/29 07:10:34;;;;;;;7.13;4.40;;;18.60;70.20;;;;;;5113370;28;20088;-70
2022/07/29 07:13:00;;;;;;;6.15;4.13;;;18.60;70.00;;;;;;5095232;28;20048;-69
2022/07/29 07:15:27;;;;;;;7.28;4.40;;;18.60;69.80;;;;;;5113237;28;20063;-70
2022/07/29 07:17:52;;;;;;;5.80;3.97;;;18.60;69.60;;;;;;5113242;28;20025;-70
2022/07/29 07:20:18;;;;;;;6.75;4.00;;;18.60;69.60;;;;;;5097817;28;20556;-71
2022/07/29 07:22:44;;;;;;;7.60;3.97;;;18.60;69.60;;;;;;5099088;28;20108;-70
2022/07/29 07:25:10;;;;;;;6.50;3.60;;;18.60;69.70;;;;;;5117101;28;20046;-71
2022/07/29 07:27:36;;;;;;;6.10;3.88;;;18.60;69.60;;;;;;5117060;28;20050;-71
2022/07/29 07:30:05;;;;;;;6.10;3.90;;;18.70;69.60;;;;;;5116944;28;20028;-70
2022/07/29 07:32:31;;;;;;;8.15;3.67;;;18.60;69.50;;;;;;5116890;28;20032;-71
2022/07/29 07:34:57;;;;;;;8.48;3.50;;;18.70;69.50;;;;;;5116908;28;20016;-71
2022/07/29 07:37:24;;;;;;;6.93;3.60;;;18.70;69.50;;;;;;5116834;28;20027;-71
2022/07/29 07:39:51;;;;;;;5.68;3.40;;;18.60;69.60;;;;;;5098886;28;20039;-71
2022/07/29 07:42:17;;;;;;;6.45;3.58;;;18.70;69.50;;;;;;5116775;28;20020;-71
2022/07/29 07:44:42;;;;;;;4.50;3.55;;;18.70;69.50;;;;;;5098795;28;20050;-71
2022/07/29 07:47:08;;;;;;;5.50;3.15;;;18.80;69.00;;;;;;5082061;28;20028;-71
2022/07/29 07:49:34;;;;;;;6.07;3.40;;;18.70;69.50;;;;;;5098742;28;20036;-72
2022/07/29 07:51:59;;;;;;;5.75;3.45;;;18.80;69.50;;;;;;5116509;28;20035;-71
2022/07/29 07:54:25;;;;;;;5.05;3.22;;;18.80;69.60;;;;;;5116543;28;20028;-71
2022/07/29 07:56:51;;;;;;;8.18;3.60;;;18.70;69.30;;;;;;5098526;28;20036;-71
2022/07/29 07:59:17;;;;;;;6.05;3.85;;;18.60;69.20;;;;;;5116602;28;20020;-71
2022/07/29 08:01:42;;;;;;;7.00;3.60;;;18.50;69.60;;;;;;5116544;28;20035;-71
2022/07/29 08:04:08;;;;;;;4.60;3.55;;;18.60;70.00;;;;;;5116335;28;20024;-71
2022/07/29 08:06:35;;;;;;;6.50;4.03;;;18.60;69.90;;;;;;5098301;28;20044;-71
2022/07/29 08:09:02;;;;;;;6.30;3.65;;;18.70;69.70;;;;;;5098620;28;20020;-71
2022/07/29 08:11:28;;;;;;;6.15;3.28;;;18.80;69.80;;;;;;5115984;28;20044;-71
2022/07/29 08:13:54;;;;;;;5.15;3.30;;;18.80;69.60;;;;;;5098534;28;20059;-72
2022/07/29 08:16:20;;;;;;;9.00;4.72;;;18.80;69.30;;;;;;5116140;28;20032;-71
2022/07/29 08:18:46;;;;;;;4.90;3.50;;;18.80;69.60;;;;;;5116067;28;20028;-72
2022/07/29 08:21:13;;;;;;;7.70;3.63;;;18.90;70.60;;;;;;5116029;28;20024;-72
2022/07/29 08:23:44;;;;;;;5.65;3.60;;;18.90;69.70;;;;;;5116015;28;20024;-71
2022/07/29 08:26:11;;;;;;;5.82;3.90;;;19.00;69.50;;;;;;5116010;28;20032;-71
2022/07/29 08:28:38;;;;;;;7.70;4.15;;;19.10;69.10;;;;;;5115799;28;20502;-71
2022/07/29 08:31:04;;;;;;;5.07;3.70;;;19.20;68.50;;;;;;5115660;28;20028;-71
2022/07/29 08:33:29;;;;;;;4.65;3.50;;;19.20;68.10;;;;;;5115721;28;20043;-71
2022/07/29 08:35:55;;;;;;;6.38;4.13;;;19.30;67.90;;;;;;5097796;28;20028;-71
2022/07/29 08:38:21;;;;;;;7.80;4.00;;;19.30;67.80;;;;;;5115702;28;20035;-72
2022/07/29 08:40:46;;;;;;;5.82;3.95;;;19.40;67.80;;;;;;5115656;28;20038;-71
2022/07/29 08:43:12;;;;;;;7.55;4.63;;;19.40;68.10;;;;;;5115593;28;20079;-71
2022/07/29 08:45:45;;;;;;;6.65;4.63;;;19.60;68.30;;;;;;5097821;28;20080;-71
2022/07/29 08:48:15;;;;;;;7.80;4.78;;;19.70;67.40;;;;;;5115518;28;20031;-71
2022/07/29 08:50:42;;;;;;;6.53;4.90;;;19.80;67.20;;;;;;5097876;28;20049;-71
2022/07/29 08:53:12;;;;;;;6.95;4.70;;;19.90;67.20;;;;;;5115314;28;20028;-71
2022/07/29 08:55:45;;;;;;;5.30;4.30;;;20.00;67.30;;;;;;5115311;28;20099;-71
2022/07/29 08:58:12;;;;;;;7.25;4.47;;;20.10;66.30;;;;;;5115186;28;20028;-71
2022/07/29 09:00:42;;;;;;;6.65;4.40;;;20.10;66.50;;;;;;5115252;28;20016;-70
2022/07/29 09:03:12;;;;;;;8.65;4.60;;;20.20;66.80;;;;;;5115387;28;20016;-71
2022/07/29 09:05:41;;;;;;;5.88;4.00;;;20.30;66.70;;;;;;5115144;28;20051;-70
2022/07/29 09:08:07;;;;;;;6.05;3.67;;;20.40;67.20;;;;;;5115103;28;20539;-70
2022/07/29 09:10:35;;;;;;;4.95;3.63;;;20.50;66.50;;;;;;5115086;28;20028;-70
2022/07/29 09:13:00;;;;;;;4.38;3.63;;;20.60;66.00;;;;;;5114654;28;20099;-71
2022/07/29 09:15:26;;;;;;;5.03;3.53;;;20.60;65.10;;;;;;5097070;28;20051;-71
2022/07/29 09:17:52;;;;;;;5.15;3.78;;;20.80;64.90;;;;;;5096949;28;20020;-70
2022/07/29 09:20:22;;;;;;;5.18;3.70;;;20.80;64.50;;;;;;5114825;28;20020;-70
2022/07/29 09:22:49;;;;;;;5.72;3.70;;;20.90;63.40;;;;;;5097018;28;20019;-70
2022/07/29 09:25:35;;;;;;;5.60;4.10;;;20.90;64.20;;;;;;5114759;28;20050;-71
2022/07/29 09:28:18;;;;;;;6.47;3.95;;;21.00;64.40;;;;;;5114011;28;20061;-70
2022/07/29 09:30:52;;;;;;;7.07;4.22;;;21.00;63.50;;;;;;5114694;28;20032;-70
2022/07/29 09:33:18;;;;;;;6.53;3.42;;;21.00;64.50;;;;;;5114588;28;20024;-70
2022/07/29 09:35:44;;;;;;;5.50;3.70;;;21.10;64.90;;;;;;5114593;28;20048;-71
2022/07/29 09:38:11;;;;;;;5.82;3.88;;;21.30;64.30;;;;;;5114552;28;20031;-70
2022/07/29 09:40:37;;;;;;;7.88;3.80;;;21.40;63.90;;;;;;5114473;28;20023;-70
2022/07/29 09:43:13;;;;;;;7.45;4.18;;;21.50;63.90;;;;;;5113885;28;20036;-70
2022/07/29 09:45:39;;;;;;;6.85;4.20;;;21.60;63.40;;;;;;5096470;28;20083;-70
2022/07/29 09:48:20;;;;;;;5.65;3.85;;;21.60;63.00;;;;;;5096529;28;20032;-70
2022/07/29 09:50:49;;;;;;;6.13;3.60;;;21.80;64.30;;;;;;5096276;28;20080;-71
2022/07/29 09:53:36;;;;;;;5.78;4.10;;;21.70;63.60;;;;;;5096151;28;20043;-71
2022/07/29 09:56:02;;;;;;;6.97;4.20;;;21.90;63.50;;;;;;5096227;28;20040;-70
2022/07/29 09:58:28;;;;;;;4.70;3.88;;;22.00;63.90;;;;;;5114190;28;20043;-70
2022/07/29 10:00:54;;;;;;;7.03;3.85;;;22.10;62.90;;;;;;5114101;28;20028;-70
2022/07/29 10:03:20;;;;;;;5.30;4.10;;;22.10;62.20;;;;;;5114096;28;20031;-69
2022/07/29 10:06:03;;;;;;;6.85;4.38;;;22.20;61.20;;;;;;5114041;28;20028;-70
2022/07/29 10:08:30;;;;;;;8.63;3.85;;;22.20;61.60;;;;;;5096211;28;20087;-70
2022/07/29 10:11:12;;;;;;;12.15;4.47;;;22.30;62.30;;;;;;5114062;28;20028;-70
2022/07/29 10:13:38;;;;;;;6.80;3.00;;;22.40;61.60;;;;;;5113809;28;20036;-70
2022/07/29 10:16:04;;;;;;;5.60;2.75;;;22.50;61.40;;;;;;5113916;28;20038;-70
2022/07/29 10:18:30;;;;;;;6.60;2.92;;;22.60;60.30;;;;;;5113991;28;20024;-70
2022/07/29 10:20:56;;;;;;;4.97;3.28;;;22.70;59.60;;;;;;5113822;28;20021;-70
2022/07/29 10:23:23;;;;;;;3.75;3.17;;;22.80;59.50;;;;;;5113795;28;20032;-70
2022/07/29 10:25:50;;;;;;;4.40;3.00;;;22.80;58.60;;;;;;5113761;28;20028;-70
2022/07/29 10:28:15;;;;;;;4.13;3.00;;;22.90;58.40;;;;;;5113642;28;20043;-70
2022/07/29 10:30:43;;;;;;;6.10;3.20;;;22.90;56.80;;;;;;5095872;28;20032;-70
2022/07/29 10:33:39;;;;;;;8.38;3.80;;;22.90;57.00;;;;;;5113750;28;20088;-70
2022/07/29 10:36:31;;;;;;;5.85;3.35;;;23.00;56.40;;;;;;5113651;28;20024;-70
2022/07/29 10:39:18;;;;;;;7.22;2.72;;;23.00;57.70;;;;;;5095765;28;20024;-70
2022/07/29 10:42:01;;;;;;;7.75;3.38;;;23.10;58.20;;;;;;5113572;28;20024;-70
2022/07/29 10:44:28;;;;;;;7.45;3.38;;;23.20;57.90;;;;;;5113573;28;20432;-69
2022/07/29 10:46:54;;;;;;;6.72;3.45;;;23.20;57.50;;;;;;5113532;28;20467;-70
2022/07/29 10:49:25;;;;;;;3.83;2.47;;;23.20;58.60;;;;;;5113412;28;20024;-70
2022/07/29 10:52:10;;;;;;;6.28;2.75;;;23.30;57.10;;;;;;5113571;28;20082;-70
2022/07/29 10:54:47;;;;;;;5.47;3.00;;;23.40;56.30;;;;;;5097295;28;20050;-70
2022/07/29 10:57:15;;;;;;;5.68;2.88;;;23.50;56.80;;;;;;5117866;28;20075;-71
2022/07/29 10:59:46;;;;;;;6.90;2.67;;;23.60;57.10;;;;;;5117733;28;20071;-70
2022/07/29 11:02:36;;;;;;;4.22;2.40;;;23.70;57.40;;;;;;5117595;28;20028;-71
2022/07/29 11:05:06;;;;;;;5.85;2.63;;;23.90;56.50;;;;;;5117662;28;20016;-70
2022/07/29 11:07:36;;;;;;;4.60;2.83;;;24.00;57.20;;;;;;5117452;28;20024;-70
2022/07/29 11:10:16;;;;;;;6.97;3.00;;;24.00;54.80;;;;;;5117514;28;20028;-71
2022/07/29 11:12:42;;;;;;;3.22;2.65;;;24.10;53.60;;;;;;5099203;28;20048;-71
2022/07/29 11:15:12;;;;;;;4.68;2.28;;;24.10;54.80;;;;;;5117328;28;20497;-70
2022/07/29 11:17:53;;;;;;;4.93;2.13;;;24.10;54.30;;;;;;5099456;28;20027;-68
2022/07/29 11:20:33;;;;;;;4.45;2.63;;;24.20;53.90;;;;;;5117206;28;20016;-68
2022/07/29 11:23:00;;;;;;;3.10;2.40;;;24.30;52.70;;;;;;5117184;28;20039;-68
2022/07/29 11:25:26;;;;;;;5.13;2.63;;;24.30;53.00;;;;;;5099165;28;20024;-71
2022/07/29 11:27:54;;;;;;;8.20;3.20;;;24.30;52.40;;;;;;5116998;28;20049;-71
2022/07/29 11:30:20;;;;;;;6.00;2.90;;;24.40;53.00;;;;;;5117024;28;20024;-71
2022/07/29 11:32:49;;;;;;;4.38;2.80;;;24.50;53.40;;;;;;5116938;28;20043;-70
2022/07/29 11:35:17;;;;;;;6.07;2.65;;;24.40;52.50;;;;;;5116907;28;20024;-70
2022/07/29 11:37:47;;;;;;;4.22;2.95;;;24.50;53.30;;;;;;5116887;28;20024;-71
2022/07/29 11:40:15;;;;;;;3.25;2.58;;;24.60;53.60;;;;;;5099505;28;20028;-71
2022/07/29 11:42:43;;;;;;;5.60;3.00;;;24.80;52.50;;;;;;5098823;28;20060;-71
2022/07/29 11:45:44;;;;;;;5.90;3.75;;;24.90;52.40;;;;;;5116744;28;20044;-68
2022/07/29 11:48:17;;;;;;;5.38;3.50;;;24.80;49.50;;;;;;5116757;28;20050;-70
2022/07/29 11:50:42;;;;;;;;;;;24.50;49.40;;;;;;5117146;28;20028;-70
2022/07/29 11:53:12;;;;;;;6.47;3.83;;;24.50;51.60;;;;;;5116548;28;19944;-69
2022/07/29 11:55:40;;;;;;;5.63;3.70;;;24.30;51.40;;;;;;5116542;28;20036;-70
2022/07/29 11:58:05;;;;;;;5.50;2.83;;;24.20;51.50;;;;;;5116499;28;20031;-70
2022/07/29 12:00:35;;;;;;;4.93;3.25;;;24.30;52.80;;;;;;5116460;28;20087;-70
2022/07/29 12:03:04;;;;;;;5.55;2.90;;;24.60;53.20;;;;;;5116417;28;20470;-70
2022/07/29 12:05:44;;;;;;;3.88;2.92;;;24.80;52.50;;;;;;5115772;28;20020;-70
2022/07/29 12:08:21;;;;;;;7.10;3.88;;;25.10;52.30;;;;;;5116377;28;20108;-70
2022/07/29 12:10:49;;;;;;;5.65;3.20;;;25.20;50.30;;;;;;5116310;28;20024;-70
2022/07/29 12:13:16;;;;;;;5.03;3.53;;;25.20;51.20;;;;;;5115958;28;20048;-70
2022/07/29 12:15:44;;;;;;;3.55;2.97;;;25.30;50.70;;;;;;5116205;28;20020;-70
2022/07/29 12:18:14;;;;;;;6.70;3.50;;;25.40;50.50;;;;;;5116120;28;20016;-70
2022/07/29 12:20:40;;;;;;;5.03;2.55;;;25.40;49.20;;;;;;5116111;28;20046;-70
2022/07/29 12:23:13;;;;;;;5.75;2.72;;;25.50;50.70;;;;;;5098219;28;20024;-70
2022/07/29 12:25:41;;;;;;;4.50;2.55;;;25.70;50.80;;;;;;5116191;28;20089;-70
2022/07/29 12:28:09;;;;;;;5.95;2.83;;;25.80;50.00;;;;;;5115976;28;20032;-70
2022/07/29 12:30:39;;;;;;;13.02;3.47;;;26.00;49.30;;;;;;5097990;28;20016;-70
2022/07/29 12:33:31;;;;;;;6.78;2.88;;;26.00;48.90;;;;;;5115793;28;20028;-70
2022/07/29 12:36:01;;;;;;;5.43;3.22;;;26.10;49.60;;;;;;5115076;28;20035;-70
2022/07/29 12:38:28;;;;;;;6.13;3.33;;;26.00;46.70;;;;;;5115695;28;20107;-70
2022/07/29 12:40:54;;;;;;;4.53;2.60;;;25.80;47.30;;;;;;5115656;28;20020;-70
2022/07/29 12:43:24;;;;;;;3.65;2.60;;;25.90;49.20;;;;;;5115582;28;20024;-70
2022/07/29 12:45:53;;;;;;;4.47;2.83;;;26.10;49.70;;;;;;5115581;28;20023;-70
2022/07/29 12:48:36;;;;;;;5.68;3.00;;;26.20;49.10;;;;;;5115571;28;20141;-70
2022/07/29 12:51:03;;;;;;;5.13;2.60;;;26.50;47.10;;;;;;5115516;28;20066;-71
2022/07/29 12:53:29;;;;;;;4.47;3.00;;;26.60;47.30;;;;;;5115400;28;20088;-70
2022/07/29 12:55:56;;;;;;;6.35;3.53;;;26.60;46.40;;;;;;5115342;28;20043;-70
2022/07/29 12:58:35;;;;;;;3.50;2.80;;;26.50;45.90;;;;;;5115374;28;20050;-70
2022/07/29 13:01:11;;;;;;;5.15;2.33;;;26.50;46.40;;;;;;5115432;28;20024;-70